Vankleek Hill, Canada
Current Conditions -  °F | °C
As of 9:00 AM on Tuesday 27 Jan 2015 (Local Time) from CYMX Reporting Station
Blowing Snow Blowing Snow  
Wind Chill: -11°   Ceiling: 21000
Heat Index:   Visibility: 45mi
Dew Point: -6°   Wind: 12mph
Humidity: 61%   Direction: 40°NE
Pressure: 30.11"   Gusts: 26mph
Location:  45.52°N, 74.65°W
Report Text: CYMX 271400Z 04010G23KT 330V080 45SM DRSN BKN210 BKN250 M15/M21 A3011 RMK CS5CI2 SLP205
Loading
Personal Weather Stations






























Interactive Weather Map New forecast layout! Learn more

10-Day Weather Forecast

Advertisements
Track Severe Weather on mobile